createdAt,value
2024-03-24T00:01:17.425Z,98680.42
2024-03-24T00:03:56.752Z,98674.88
2024-03-24T00:06:26.874Z,98669.81
2024-03-24T00:08:58.363Z,98664.45
2024-03-24T00:11:28.848Z,98659.34
2024-03-24T00:14:00.201Z,98655.70
2024-03-24T00:16:31.345Z,98654.59
2024-03-24T00:19:04.857Z,98649.12
2024-03-24T00:21:35.070Z,98652.23
2024-03-24T00:24:06.817Z,98649.21
2024-03-24T00:26:36.931Z,98644.49
2024-03-24T00:29:08.793Z,98641.45
2024-03-24T00:31:39.019Z,98642.91
2024-03-24T00:34:10.813Z,98641.52
2024-03-24T00:36:41.200Z,98637.48
2024-03-24T00:39:12.759Z,98634.67
2024-03-24T00:41:42.980Z,98635.66
2024-03-24T00:44:14.230Z,98634.61
2024-03-24T00:46:44.445Z,98632.05
2024-03-24T00:49:16.198Z,98628.20
2024-03-24T00:51:46.425Z,98624.35
2024-03-24T00:54:18.838Z,98621.63
2024-03-24T00:56:49.217Z,98616.92
2024-03-24T00:59:20.975Z,98615.86
2024-03-24T01:01:51.094Z,98610.07
2024-03-24T01:04:22.760Z,98600.69
2024-03-24T01:06:52.973Z,98593.41
2024-03-24T01:09:24.636Z,98586.59
2024-03-24T01:11:54.846Z,98587.34
2024-03-24T01:14:26.401Z,98586.42
2024-03-24T01:16:56.826Z,98583.86
2024-03-24T01:19:31.660Z,98582.44
2024-03-24T01:22:04.555Z,98578.02
2024-03-24T01:24:35.074Z,98579.67
2024-03-24T01:27:06.834Z,98577.48
2024-03-24T01:29:37.071Z,98578.66
2024-03-24T01:32:08.398Z,98572.02
2024-03-24T01:34:38.720Z,98574.66
2024-03-24T01:37:10.093Z,98572.17
2024-03-24T01:39:44.327Z,98572.42
2024-03-24T01:42:16.144Z,98574.56
2024-03-24T01:44:46.466Z,98570.59
2024-03-24T01:47:17.814Z,98568.27
2024-03-24T01:49:48.355Z,98567.17
2024-03-24T01:52:19.687Z,98569.44
2024-03-24T01:54:50.231Z,98570.20
2024-03-24T01:57:21.981Z,98565.50
2024-03-24T01:59:52.410Z,98569.36
2024-03-24T02:02:24.066Z,98566.98
2024-03-24T02:04:54.283Z,98566.89
2024-03-24T02:07:25.736Z,98572.98
2024-03-24T02:09:55.956Z,98578.02
2024-03-24T02:12:27.198Z,98574.18
2024-03-24T02:14:57.521Z,98573.36
2024-03-24T02:17:28.891Z,98579.58
2024-03-24T02:20:01.261Z,98579.25
2024-03-24T02:22:37.605Z,98587.58
2024-03-24T02:25:10.252Z,98587.65
2024-03-24T02:27:40.507Z,98586.39
2024-03-24T02:30:12.603Z,98587.30
2024-03-24T02:32:45.880Z,98581.18
2024-03-24T02:35:17.521Z,98579.48
2024-03-24T02:37:48.175Z,98585.14
2024-03-24T02:40:19.704Z,98583.02
2024-03-24T02:42:50.241Z,98582.45
2024-03-24T02:45:21.915Z,98590.12
2024-03-24T02:47:52.216Z,98590.59
2024-03-24T02:50:23.872Z,98589.16
2024-03-24T02:52:54.396Z,98581.49
2024-03-24T02:55:26.565Z,98583.79
2024-03-24T02:57:56.899Z,98589.21
2024-03-24T03:00:28.659Z,98591.22
2024-03-24T03:02:58.963Z,98592.45
2024-03-24T03:05:30.318Z,98593.02
2024-03-24T03:08:04.237Z,98592.15
2024-03-24T03:10:35.773Z,98586.48
2024-03-24T03:13:06.101Z,98583.33
2024-03-24T03:15:37.751Z,98585.66
2024-03-24T03:18:09.411Z,98590.67
2024-03-24T03:20:40.963Z,98591.30
2024-03-24T03:23:11.397Z,98596.70
2024-03-24T03:25:43.448Z,98594.17
2024-03-24T03:28:14.009Z,98597.62
2024-03-24T03:30:45.427Z,98592.45
2024-03-24T03:33:15.957Z,98594.23
2024-03-24T03:35:47.513Z,98592.44
2024-03-24T03:38:17.734Z,98590.27
2024-03-24T03:40:49.282Z,98587.40
2024-03-24T03:43:21.108Z,98579.98
2024-03-24T03:45:53.220Z,98582.35
2024-03-24T03:48:23.533Z,98586.66
2024-03-24T03:50:55.089Z,98580.58
2024-03-24T03:53:26.544Z,98580.87
2024-03-24T03:55:58.932Z,98590.30
2024-03-24T03:58:30.052Z,98591.27
2024-03-24T04:01:01.922Z,98590.65
2024-03-24T04:03:33.882Z,98592.69
2024-03-24T04:06:06.352Z,98588.39
2024-03-24T04:08:36.802Z,98592.17
2024-03-24T04:11:10.903Z,98590.20
2024-03-24T04:13:43.565Z,98588.98
2024-03-24T04:16:13.695Z,98582.04
2024-03-24T04:18:51.172Z,98577.41
2024-03-24T04:21:23.246Z,98574.05
2024-03-24T04:23:53.464Z,98573.20
2024-03-24T04:26:25.036Z,98572.64
2024-03-24T04:28:55.362Z,98567.97
2024-03-24T04:31:27.413Z,98572.29
2024-03-24T04:33:58.059Z,98564.73
2024-03-24T04:36:29.590Z,98561.77
2024-03-24T04:38:59.702Z,98562.96
2024-03-24T04:41:31.475Z,98558.25
2024-03-24T04:44:01.786Z,98560.08
2024-03-24T04:46:33.959Z,98556.35
2024-03-24T04:49:05.509Z,98557.95
2024-03-24T04:51:37.158Z,98556.48
2024-03-24T04:54:08.221Z,98555.95
2024-03-24T04:56:40.064Z,98558.97
2024-03-24T04:59:10.083Z,98555.11
2024-03-24T05:01:41.637Z,98556.33
2024-03-24T05:04:11.879Z,98550.95
2024-03-24T05:06:43.315Z,98549.25
2024-03-24T05:09:13.728Z,98549.63
2024-03-24T05:11:46.579Z,98546.42
2024-03-24T05:14:16.848Z,98544.17
2024-03-24T05:16:48.691Z,98546.48
2024-03-24T05:19:19.050Z,98550.05
2024-03-24T05:21:50.793Z,98547.10
2024-03-24T05:24:21.100Z,98544.70
2024-03-24T05:26:53.374Z,98540.14
2024-03-24T05:29:23.800Z,98535.63
2024-03-24T05:31:59.146Z,98538.70
2024-03-24T05:34:31.716Z,98539.91
2024-03-24T05:37:01.737Z,98538.06
2024-03-24T05:39:33.393Z,98542.26
2024-03-24T05:42:04.193Z,98540.73
2024-03-24T05:44:35.774Z,98538.14
2024-03-24T05:47:05.892Z,98544.02
2024-03-24T05:49:37.552Z,98549.38
2024-03-24T05:52:07.771Z,98547.24
2024-03-24T05:54:39.531Z,98552.89
2024-03-24T05:57:09.545Z,98549.38
2024-03-24T05:59:41.374Z,98544.38
2024-03-24T06:02:11.422Z,98547.48
2024-03-24T06:04:43.556Z,98551.13
2024-03-24T06:07:13.814Z,98553.48
2024-03-24T06:09:45.263Z,98552.05
2024-03-24T06:12:15.283Z,98553.13
2024-03-24T06:14:47.138Z,98554.74
2024-03-24T06:17:17.048Z,98559.60
2024-03-24T06:19:48.813Z,98563.34
2024-03-24T06:22:19.571Z,98564.30
2024-03-24T06:24:50.891Z,98568.46
2024-03-24T06:27:21.220Z,98565.90
2024-03-24T06:29:52.659Z,98567.33
2024-03-24T06:32:23.006Z,98575.25
2024-03-24T06:34:54.540Z,98578.10
2024-03-24T06:37:24.656Z,98579.02
2024-03-24T06:39:56.212Z,98574.92
2024-03-24T06:42:28.078Z,98584.50
2024-03-24T06:45:07.195Z,98590.88
2024-03-24T06:47:38.857Z,98589.88
2024-03-24T06:50:10.000Z,98593.30
2024-03-24T06:52:41.475Z,98593.20
2024-03-24T06:55:12.382Z,98599.30
2024-03-24T06:57:43.841Z,98599.48
2024-03-24T07:00:18.780Z,98602.63
2024-03-24T07:02:51.137Z,98605.66
2024-03-24T07:05:21.159Z,98603.50
2024-03-24T07:07:52.919Z,98605.67
2024-03-24T07:10:22.978Z,98609.68
2024-03-24T07:12:55.100Z,98606.42
2024-03-24T07:15:25.331Z,98606.90
2024-03-24T07:17:57.183Z,98605.84
2024-03-24T07:20:27.199Z,98610.86
2024-03-24T07:22:59.544Z,98613.30
2024-03-24T07:25:30.116Z,98615.36
2024-03-24T07:28:01.781Z,98614.61
2024-03-24T07:30:32.179Z,98616.75
2024-03-24T07:33:04.174Z,98618.15
2024-03-24T07:35:34.579Z,98612.89
2024-03-24T07:38:06.125Z,98611.46
2024-03-24T07:40:36.145Z,98609.39
2024-03-24T07:43:07.800Z,98613.30
2024-03-24T07:45:37.670Z,98614.01
2024-03-24T07:48:11.921Z,98609.21
2024-03-24T07:50:42.859Z,98607.17
2024-03-24T07:53:14.717Z,98611.42
2024-03-24T07:55:45.147Z,98599.81
2024-03-24T07:58:17.008Z,98603.54
2024-03-24T08:00:47.129Z,98602.40
2024-03-24T08:03:18.778Z,98605.29
2024-03-24T08:05:49.312Z,98607.20
2024-03-24T08:08:20.761Z,98605.91
2024-03-24T08:10:50.975Z,98606.48
2024-03-24T08:13:22.876Z,98604.29
2024-03-24T08:15:54.618Z,98601.44
2024-03-24T08:18:26.149Z,98602.30
2024-03-24T08:20:57.876Z,98604.45
2024-03-24T08:23:29.254Z,98604.98
2024-03-24T08:25:59.889Z,98602.50
2024-03-24T08:28:31.354Z,98603.92
2024-03-24T08:31:02.065Z,98598.84
2024-03-24T08:33:33.929Z,98593.71
2024-03-24T08:36:04.585Z,98588.73
2024-03-24T08:38:36.291Z,98585.64
2024-03-24T08:41:06.636Z,98584.82
2024-03-24T08:43:38.197Z,98584.70
2024-03-24T08:46:08.408Z,98581.05
2024-03-24T08:48:45.932Z,98581.15
2024-03-24T08:51:18.996Z,98586.87
2024-03-24T08:53:49.023Z,98585.39
2024-03-24T08:56:21.494Z,98582.52
2024-03-24T08:58:51.503Z,98582.66
2024-03-24T09:01:23.063Z,98581.02
2024-03-24T09:03:53.388Z,98578.59
2024-03-24T09:06:24.732Z,98581.34
2024-03-24T09:08:54.950Z,98578.15
2024-03-24T09:11:26.504Z,98573.84
2024-03-24T09:13:56.634Z,98573.45
2024-03-24T09:16:28.284Z,98572.05
2024-03-24T09:18:58.284Z,98578.77
2024-03-24T09:21:30.049Z,98578.12
2024-03-24T09:24:00.274Z,98575.65
2024-03-24T09:26:32.042Z,98571.86
2024-03-24T09:29:02.662Z,98571.77
2024-03-24T09:31:34.420Z,98564.52
2024-03-24T09:34:04.541Z,98566.55
2024-03-24T09:36:36.293Z,98563.59
2024-03-24T09:39:07.639Z,98556.07
2024-03-24T09:41:43.774Z,98543.39
2024-03-24T09:44:16.277Z,98540.58
2024-03-24T09:46:46.675Z,98541.42
2024-03-24T09:49:18.149Z,98537.84
2024-03-24T09:51:48.486Z,98533.86
2024-03-24T09:54:20.029Z,98534.39
2024-03-24T09:56:50.261Z,98529.74
2024-03-24T09:59:21.799Z,98530.06
2024-03-24T10:01:52.131Z,98529.52
2024-03-24T10:04:23.596Z,98529.42
2024-03-24T10:06:54.412Z,98526.94
2024-03-24T10:09:25.864Z,98524.27
2024-03-24T10:11:56.185Z,98530.23
2024-03-24T10:14:27.743Z,98536.81
2024-03-24T10:17:27.267Z,98533.33
2024-03-24T10:19:59.727Z,98530.13
2024-03-24T10:22:29.764Z,98523.45
2024-03-24T10:25:02.235Z,98524.39
2024-03-24T10:27:33.261Z,98517.10
2024-03-24T10:30:05.117Z,98509.52
2024-03-24T10:32:35.264Z,98501.33
2024-03-24T10:35:07.562Z,98499.63
2024-03-24T10:37:38.958Z,98492.52
2024-03-24T10:40:14.419Z,98489.25
2024-03-24T10:42:50.258Z,98491.90
2024-03-24T10:45:25.905Z,98486.44
2024-03-24T10:48:04.677Z,98484.40
2024-03-24T10:50:38.828Z,98481.09
2024-03-24T10:53:15.313Z,98481.33
2024-03-24T10:55:47.675Z,98476.45
2024-03-24T10:58:20.186Z,98473.77
2024-03-24T11:00:52.107Z,98471.10
2024-03-24T11:03:23.211Z,98466.00
2024-03-24T11:05:54.804Z,98466.17
2024-03-24T11:08:25.024Z,98461.71
2024-03-24T11:10:58.110Z,98461.91
2024-03-24T11:13:29.597Z,98458.11
2024-03-24T11:16:02.675Z,98452.96
2024-03-24T11:18:32.769Z,98445.09
2024-03-24T11:21:07.482Z,98441.08
2024-03-24T11:23:41.792Z,98443.91
2024-03-24T11:26:20.022Z,98445.27
2024-03-24T11:28:51.782Z,98450.95
2024-03-24T11:31:22.009Z,98448.42
2024-03-24T11:34:00.125Z,98445.37
2024-03-24T11:36:33.831Z,98446.70
2024-03-24T11:39:05.595Z,98445.19
2024-03-24T11:41:36.932Z,98443.46
2024-03-24T11:44:08.340Z,98438.21
2024-03-24T11:46:39.628Z,98438.88
2024-03-24T11:49:12.363Z,98440.42
2024-03-24T11:51:43.743Z,98437.30
2024-03-24T11:54:14.267Z,98434.07
2024-03-24T11:56:45.632Z,98433.50
2024-03-24T11:59:15.949Z,98433.71
2024-03-24T12:01:48.539Z,98428.64
2024-03-24T12:04:18.749Z,98427.69
2024-03-24T12:06:50.404Z,98428.02
2024-03-24T12:09:20.619Z,98424.15
2024-03-24T12:11:55.916Z,98417.16
2024-03-24T12:14:28.742Z,98416.30
2024-03-24T12:17:08.084Z,98416.84
2024-03-24T12:19:41.888Z,98412.52
2024-03-24T12:22:12.322Z,98410.69
2024-03-24T12:24:43.764Z,98405.27
2024-03-24T12:27:15.707Z,98404.75
2024-03-24T12:29:59.254Z,98399.13
2024-03-24T12:32:31.211Z,98396.27
2024-03-24T12:35:01.639Z,98394.16
2024-03-24T12:37:33.084Z,98394.10
2024-03-24T12:40:04.339Z,98391.72
2024-03-24T12:42:35.890Z,98390.11
2024-03-24T12:45:12.350Z,98387.67
2024-03-24T12:47:44.493Z,98385.80
2024-03-24T12:53:07.603Z,98378.85
2024-03-24T12:55:39.259Z,98379.14
2024-03-24T12:58:14.504Z,98376.84
2024-03-24T13:00:46.143Z,98374.64
2024-03-24T13:03:16.472Z,98375.40
2024-03-24T13:05:48.026Z,98368.66
2024-03-24T13:08:18.350Z,98369.15
2024-03-24T13:10:49.826Z,98371.09
2024-03-24T13:13:20.221Z,98369.13
2024-03-24T13:15:51.670Z,98369.60
2024-03-24T13:18:45.966Z,98366.52
2024-03-24T13:21:36.144Z,98365.60
2024-03-24T13:24:08.319Z,98365.38
2024-03-24T13:26:39.023Z,98360.98
2024-03-24T13:29:10.297Z,98359.35
2024-03-24T13:31:40.618Z,98357.02
2024-03-24T13:34:13.300Z,98356.35
2024-03-24T13:36:47.017Z,98354.27
2024-03-24T13:39:29.210Z,98355.70
2024-03-24T13:42:31.676Z,98357.79
2024-03-24T13:45:21.058Z,98354.89
2024-03-24T13:48:14.211Z,98349.68
2024-03-24T13:50:45.767Z,98352.98
2024-03-24T13:53:15.990Z,98346.85
2024-03-24T13:55:47.842Z,98344.77
2024-03-24T13:58:17.968Z,98341.20
2024-03-24T14:00:49.986Z,98342.09
2024-03-24T14:03:20.762Z,98338.56
2024-03-24T14:05:52.421Z,98337.80
2024-03-24T14:08:22.847Z,98332.70
2024-03-24T14:10:54.297Z,98337.77
2024-03-24T14:13:46.233Z,98332.15
2024-03-24T14:17:05.704Z,98326.66
2024-03-24T14:19:41.151Z,98329.10
2024-03-24T14:22:26.269Z,98328.00
2024-03-24T14:25:09.856Z,98327.80
2024-03-24T14:27:41.303Z,98323.20
2024-03-24T14:30:12.347Z,98323.58
2024-03-24T14:32:43.795Z,98318.00
2024-03-24T14:35:14.214Z,98312.44
2024-03-24T14:37:49.048Z,98310.85
2024-03-24T14:40:57.053Z,98302.73
2024-03-24T14:43:47.448Z,98300.77
2024-03-24T14:46:21.467Z,98305.70
2024-03-24T14:48:51.791Z,98304.98
2024-03-24T14:51:23.143Z,98304.56
2024-03-24T14:53:54.216Z,98302.56
2024-03-24T14:56:27.397Z,98304.13
2024-03-24T14:58:58.061Z,98302.48
2024-03-24T15:01:31.631Z,98303.66
2024-03-24T15:04:02.129Z,98301.03
2024-03-24T15:06:33.781Z,98296.33
2024-03-24T15:09:04.325Z,98298.36
2024-03-24T15:11:36.275Z,98300.19
2024-03-24T15:14:06.699Z,98299.93
2024-03-24T15:16:38.260Z,98296.75
2024-03-24T15:19:09.907Z,98295.73
2024-03-24T15:21:43.026Z,98294.73
2024-03-24T15:24:13.208Z,98294.69
2024-03-24T15:26:46.782Z,98293.21
2024-03-24T15:29:17.031Z,98291.52
2024-03-24T15:31:48.587Z,98291.05
2024-03-24T15:34:18.806Z,98291.02
2024-03-24T15:36:50.830Z,98289.14
2024-03-24T15:39:21.108Z,98292.99
2024-03-24T15:41:52.656Z,98291.15
2024-03-24T15:44:22.863Z,98290.88
2024-03-24T15:46:54.427Z,98293.36
2024-03-24T15:49:24.641Z,98289.26
2024-03-24T15:51:58.962Z,98291.65
2024-03-24T15:54:32.783Z,98293.48
2024-03-24T15:57:26.766Z,98293.05
2024-03-24T16:00:07.095Z,98296.40
2024-03-24T16:02:38.866Z,98299.30
2024-03-24T16:05:09.182Z,98302.89
2024-03-24T16:07:42.441Z,98295.71
2024-03-24T16:10:33.819Z,98293.35
2024-03-24T16:13:42.518Z,98289.42
2024-03-24T16:16:17.962Z,98294.36
2024-03-24T16:18:49.838Z,98291.33
2024-03-24T16:21:24.137Z,98289.77
2024-03-24T16:23:55.806Z,98289.81
2024-03-24T16:26:26.842Z,98287.00
2024-03-24T16:28:59.107Z,98286.31
2024-03-24T16:31:30.283Z,98284.77
2024-03-24T16:34:02.104Z,98284.80
2024-03-24T16:36:34.176Z,98279.73
2024-03-24T16:39:06.158Z,98284.31
2024-03-24T16:41:36.865Z,98286.52
2024-03-24T16:44:08.314Z,98288.02
2024-03-24T16:46:38.968Z,98294.10
2024-03-24T16:49:12.137Z,98290.95
2024-03-24T16:51:42.982Z,98291.15
2024-03-24T16:54:14.531Z,98286.93
2024-03-24T16:56:44.761Z,98284.35
2024-03-24T16:59:16.220Z,98292.02
2024-03-24T17:01:47.039Z,98292.89
2024-03-24T17:04:21.251Z,98289.42
2024-03-24T17:06:54.036Z,98291.48
2024-03-24T17:09:24.088Z,98288.30
2024-03-24T17:11:55.815Z,98294.83
2024-03-24T17:14:26.333Z,98295.86
2024-03-24T17:16:57.799Z,98296.55
2024-03-24T17:19:28.424Z,98293.92
2024-03-24T17:22:00.072Z,98293.73
2024-03-24T17:24:30.596Z,98296.88
2024-03-24T17:27:02.055Z,98297.48
2024-03-24T17:29:34.117Z,98300.91
2024-03-24T17:32:05.872Z,98304.79
2024-03-24T17:34:36.566Z,98303.47
2024-03-24T17:37:07.957Z,98306.32
2024-03-24T17:39:38.482Z,98308.25
2024-03-24T17:42:09.728Z,98308.71
2024-03-24T17:44:40.736Z,98306.98
2024-03-24T17:47:12.021Z,98309.80
2024-03-24T17:49:42.446Z,98306.84
2024-03-24T17:52:14.286Z,98311.16
2024-03-24T17:54:45.033Z,98312.25
2024-03-24T17:57:16.387Z,98312.74
2024-03-24T17:59:46.806Z,98316.64
2024-03-24T18:02:18.155Z,98318.14
2024-03-24T18:04:48.685Z,98321.24
2024-03-24T18:07:39.078Z,98318.04
2024-03-24T18:10:25.474Z,98312.89
2024-03-24T18:12:58.662Z,98309.69
2024-03-24T18:15:29.199Z,98312.80
2024-03-24T18:18:01.774Z,98312.95
2024-03-24T18:20:33.463Z,98318.13
2024-03-24T18:23:05.617Z,98319.54
2024-03-24T18:25:35.920Z,98317.91
2024-03-24T18:28:07.584Z,98320.48
2024-03-24T18:30:41.175Z,98320.93
2024-03-24T18:33:13.857Z,98323.52
2024-03-24T18:35:44.496Z,98328.00
2024-03-24T18:38:16.143Z,98326.49
2024-03-24T18:40:46.287Z,98329.59
2024-03-24T18:43:17.825Z,98330.12
2024-03-24T18:45:48.032Z,98331.97
2024-03-24T18:48:19.491Z,98334.21
2024-03-24T18:50:50.029Z,98332.64
2024-03-24T18:53:21.363Z,98332.09
2024-03-24T18:55:51.688Z,98330.76
2024-03-24T18:58:23.238Z,98329.10
2024-03-24T19:00:54.803Z,98331.85
2024-03-24T19:03:30.229Z,98331.66
2024-03-24T19:06:02.002Z,98327.25
2024-03-24T19:08:32.013Z,98324.28
2024-03-24T19:11:04.042Z,98323.54
2024-03-24T19:13:34.096Z,98323.59
2024-03-24T19:16:06.367Z,98316.66
2024-03-24T19:18:36.787Z,98316.11
2024-03-24T19:21:09.278Z,98311.69
2024-03-24T19:23:39.582Z,98311.02
2024-03-24T19:26:11.397Z,98309.16
2024-03-24T19:28:41.574Z,98313.30
2024-03-24T19:31:13.111Z,98312.41
2024-03-24T19:33:43.543Z,98312.90
2024-03-24T19:36:15.087Z,98311.30
2024-03-24T19:38:45.316Z,98308.36
2024-03-24T19:41:17.480Z,98311.41
2024-03-24T19:43:47.817Z,98313.05
2024-03-24T19:46:19.877Z,98311.00
2024-03-24T19:48:50.199Z,98306.94
2024-03-24T19:51:21.642Z,98308.68
2024-03-24T19:53:52.057Z,98308.89
2024-03-24T19:56:26.492Z,98309.83
2024-03-24T19:58:59.189Z,98306.89
2024-03-24T20:01:29.698Z,98304.94
2024-03-24T20:04:00.949Z,98304.84
2024-03-24T20:06:32.622Z,98309.23
2024-03-24T20:09:04.180Z,98306.86
2024-03-24T20:11:34.438Z,98304.92
2024-03-24T20:14:06.438Z,98304.80
2024-03-24T20:16:36.560Z,98308.23
2024-03-24T20:19:08.008Z,98307.58
2024-03-24T20:21:38.432Z,98304.39
2024-03-24T20:24:10.296Z,98307.55
2024-03-24T20:26:40.406Z,98305.77
2024-03-24T20:29:11.655Z,98307.04
2024-03-24T20:31:42.290Z,98305.30
2024-03-24T20:34:13.846Z,98305.52
2024-03-24T20:36:44.585Z,98307.23
2024-03-24T20:39:16.036Z,98310.36
2024-03-24T20:41:46.557Z,98305.02
2024-03-24T20:44:19.041Z,98301.90
2024-03-24T20:46:49.281Z,98301.30
2024-03-24T20:49:20.596Z,98299.80
2024-03-24T20:51:50.920Z,98300.64
2024-03-24T20:54:22.680Z,98299.50
2024-03-24T20:56:52.900Z,98298.16
2024-03-24T20:59:24.141Z,98296.66
2024-03-24T21:01:54.363Z,98294.31
2024-03-24T21:04:25.719Z,98295.14
2024-03-24T21:06:56.245Z,98300.33
2024-03-24T21:09:27.487Z,98297.13
2024-03-24T21:11:57.916Z,98299.17
2024-03-24T21:14:32.390Z,98297.36
2024-03-24T21:17:05.317Z,98298.19
2024-03-24T21:19:37.424Z,98295.48
2024-03-24T21:22:09.037Z,98295.77
2024-03-24T21:24:39.263Z,98295.40
2024-03-24T21:27:10.916Z,98295.69
2024-03-24T21:29:41.251Z,98294.55
2024-03-24T21:32:12.785Z,98294.67
2024-03-24T21:34:43.550Z,98291.32
2024-03-24T21:37:14.775Z,98284.42
2024-03-24T21:40:03.638Z,98282.99
2024-03-24T21:42:35.281Z,98280.41
2024-03-24T21:45:05.919Z,98279.67
2024-03-24T21:47:38.157Z,98275.88
2024-03-24T21:50:09.324Z,98272.09
2024-03-24T21:52:40.877Z,98269.20
2024-03-24T21:55:11.612Z,98269.68
2024-03-24T21:57:43.165Z,98267.01
2024-03-24T22:00:14.011Z,98263.26
2024-03-24T22:02:45.963Z,98260.48
2024-03-24T22:05:20.144Z,98262.41
2024-03-24T22:08:13.229Z,98260.29
2024-03-24T22:10:43.781Z,98260.71
2024-03-24T22:13:14.392Z,98255.41
2024-03-24T22:15:46.158Z,98255.23
2024-03-24T22:18:16.427Z,98257.73
2024-03-24T22:20:50.110Z,98261.87
2024-03-24T22:23:20.103Z,98259.75
2024-03-24T22:25:51.975Z,98256.57
2024-03-24T22:28:22.000Z,98252.76
2024-03-24T22:30:53.933Z,98254.08
2024-03-24T22:33:25.479Z,98251.42
2024-03-24T22:35:56.939Z,98253.51
2024-03-24T22:38:27.162Z,98253.79
2024-03-24T22:41:01.269Z,98253.61
2024-03-24T22:43:31.499Z,98249.38
2024-03-24T22:46:03.361Z,98245.54
2024-03-24T22:48:33.475Z,98246.33
2024-03-24T22:51:05.665Z,98248.71
2024-03-24T22:53:36.270Z,98247.33
2024-03-24T22:56:08.018Z,98248.48
2024-03-24T22:58:38.241Z,98249.91
2024-03-24T23:01:09.806Z,98247.47
2024-03-24T23:03:40.230Z,98241.63
2024-03-24T23:06:14.544Z,98245.23
2024-03-24T23:08:47.227Z,98242.92
2024-03-24T23:11:17.779Z,98243.27
2024-03-24T23:13:49.303Z,98241.50
2024-03-24T23:16:19.832Z,98239.70
2024-03-24T23:18:51.690Z,98237.88
2024-03-24T23:21:22.008Z,98233.48
2024-03-24T23:23:54.386Z,98231.55
2024-03-24T23:26:24.614Z,98233.13
2024-03-24T23:28:56.374Z,98232.01
2024-03-24T23:31:29.466Z,98234.21
2024-03-24T23:34:01.010Z,98237.58
2024-03-24T23:36:31.233Z,98235.52
2024-03-24T23:39:03.190Z,98237.80
2024-03-24T23:41:33.418Z,98233.64
2024-03-24T23:44:05.680Z,98229.34
2024-03-24T23:46:35.900Z,98231.06
2024-03-24T23:49:07.561Z,98228.52
2024-03-24T23:51:38.087Z,98222.93
2024-03-24T23:54:09.537Z,98224.54
2024-03-24T23:56:39.653Z,98227.02
2024-03-24T23:59:11.000Z,98227.14
